Markleeville, CA

11:53 PM PDT on September 16, 2014 (GMT -0700)
Country Club Heights | Change Station
CLOSE
Current Station
Personal Weather Station
Location: South Lake Tahoe, CA
Elevation: 6500 ft
Nearby Weather Stations
Active Advisory: Lake Wind Advisory

Elev 6500 ft 38.86 °N, 120.01 °W | Updated 4 seconds ago

Partly Cloudy
Partly Cloudy
64.1 °F
Feels Like 64.1 °F
N
2.0
Wind Variable Wind from South
Gusts 2.0 mph

Today
High -- | Low -- °F
--% Chance of Precip.
Yesterday
High -- | Low -- °F
Precip. -- in
6:41 AM 7:05 PM
Last Quarter, 38% visible
Pressure 29.95 in
Visibility 10.0 miles
Clouds Clear
Dew Point 27 °F
Humidity 24%
Rainfall 0.00 in
Snow Depth 0 in , 0 in , 0 in
UV 0.0 out of 12
Pollen 7.40 out of 12
Air Quality Not available.
Flu Activity Not available.
METAR KTVL 170553Z AUTO 00000KT 10SM CLR 14/M01 A3014 RMK AO2 SLP142 T01391011 10272 20133 51004

More Conditions Fewer Conditions

Pressure 29.95 in
Visibility 10.0 miles
Clouds Clear
Dew Point 27 °F
Humidity 24%
Rainfall 0.00 in
Snow Depth 0 in , 0 in , 0 in
UV 0.0 out of 12
Pollen 7.40 out of 12
Air Quality Not available.
Flu Activity Not available.
METAR KTVL 170553Z AUTO 00000KT 10SM CLR 14/M01 A3014 RMK AO2 SLP142 T01391011 10272 20133 51004

More Conditions Fewer Conditions

10-Day Weather Forecast

Almanac

Astronomy

Sep. 16, 2014 Rise Set
Actual Time 6:41 AM PDT 7:05 PM PDT
Civil Twilight 6:15 AM PDT 7:32 PM PDT
Nautical Twilight 5:43 AM PDT 8:03 PM PDT
Astronomical Twilight 5:11 AM PDT 8:35 PM PDT
Moon No Moon Rise 2:30 PM PDT (9/16)
Length of Visible Light 13h 17m
Length of Day
12h 24m
Tomorrow will be 2m 29s shorter.
Last Quarter, 38% of the Moon is Illuminated
Sep 17
Last Quarter
Sep 24
New
Oct 1
First Quarter
Oct 8
Full
Oct 15
Last Quarter

Community

WunderPhotos

Upload Photos

1,753,970 photos uploaded!

Nearby

Snow Depth

Station Depth Elevation
Fallen Leaf 0 in 6300 ft
Leavitt Lake 0 in 9400 ft
Tahoe City Cross 0 in 6750 ft
Summit Meadow 0 in 9122 ft
Spratt Creek 0 in 6200 ft

Earthquake Activity

City Distance Mag. Time & Date
No recent earthquake activity has been reported nearby.
Minimum magnitude displayed is 2.5.

Coastal Water Temperatures

Place Temperature
No Stations Reporting

Nearby Weather Stations